createdAt,value
2022-10-18T00:00:23.244Z,4.45
2022-10-18T00:02:50.642Z,5.28
2022-10-18T00:05:18.144Z,4.68
2022-10-18T00:07:45.594Z,5.28
2022-10-18T00:10:12.948Z,3.85
2022-10-18T00:12:41.097Z,4.70
2022-10-18T00:15:09.186Z,5.05
2022-10-18T00:17:38.362Z,4.88
2022-10-18T00:20:07.241Z,5.32
2022-10-18T00:22:36.856Z,3.58
2022-10-18T00:25:05.828Z,3.40
2022-10-18T00:27:34.151Z,4.20
2022-10-18T00:30:01.505Z,4.45
2022-10-18T00:32:31.658Z,3.78
2022-10-18T00:34:59.656Z,4.63
2022-10-18T00:37:26.984Z,3.88
2022-10-18T00:39:54.331Z,4.38
2022-10-18T00:42:33.370Z,3.67
2022-10-18T00:45:15.604Z,4.53
2022-10-18T00:47:46.004Z,4.90
2022-10-18T00:50:14.112Z,5.82
2022-10-18T00:52:52.031Z,4.35
2022-10-18T00:55:20.155Z,5.68
2022-10-18T00:57:50.245Z,4.45
2022-10-18T01:00:18.736Z,8.10
2022-10-18T01:02:47.208Z,4.88
2022-10-18T01:05:17.083Z,7.70
2022-10-18T01:08:21.635Z,3.80
2022-10-18T01:10:48.970Z,5.72
2022-10-18T01:13:46.723Z,4.78
2022-10-18T01:16:46.250Z,4.97
2022-10-18T01:19:47.849Z,6.03
2022-10-18T01:22:42.081Z,4.00
2022-10-18T01:25:33.607Z,5.00
2022-10-18T01:28:26.309Z,5.28
2022-10-18T01:31:05.321Z,6.18
2022-10-18T01:33:46.400Z,3.85
2022-10-18T01:36:24.121Z,4.32
2022-10-18T01:38:54.686Z,4.22
2022-10-18T01:41:25.550Z,5.80
2022-10-18T01:43:57.695Z,4.82
2022-10-18T01:46:26.810Z,5.07
2022-10-18T01:48:55.626Z,7.45
2022-10-18T01:51:33.601Z,5.57
2022-10-18T01:54:01.427Z,4.68
2022-10-18T01:57:07.142Z,6.03
2022-10-18T01:59:41.047Z,5.22
2022-10-18T02:05:03.438Z,4.43
2022-10-18T02:08:12.430Z,6.45
2022-10-18T02:10:50.068Z,5.35
2022-10-18T02:13:20.854Z,4.72
2022-10-18T02:16:14.307Z,6.32
2022-10-18T02:18:46.400Z,5.63
2022-10-18T02:21:17.931Z,4.80
2022-10-18T02:23:49.008Z,5.40
2022-10-18T02:26:17.207Z,10.27
2022-10-18T02:28:46.297Z,7.18
2022-10-18T02:31:13.774Z,7.70
2022-10-18T02:33:56.106Z,5.90
2022-10-18T02:36:38.365Z,5.15
2022-10-18T02:39:11.835Z,7.68
2022-10-18T02:41:39.363Z,8.40
2022-10-18T02:44:06.729Z,7.75
2022-10-18T02:46:35.187Z,6.40
2022-10-18T02:49:02.668Z,6.00
2022-10-18T02:51:29.989Z,6.38
2022-10-18T02:53:57.447Z,6.75
2022-10-18T02:56:24.941Z,5.68
2022-10-18T02:58:52.315Z,6.00
2022-10-18T03:01:19.778Z,4.82
2022-10-18T03:03:47.301Z,6.57
2022-10-18T03:06:14.615Z,6.43
2022-10-18T03:08:42.024Z,6.78
2022-10-18T03:11:09.518Z,5.55
2022-10-18T03:13:37.100Z,5.53
2022-10-18T03:16:04.740Z,6.55
2022-10-18T03:18:32.106Z,8.55
2022-10-18T03:20:59.635Z,5.55
2022-10-18T03:23:27.074Z,6.53
2022-10-18T03:25:54.444Z,6.95
2022-10-18T03:28:21.822Z,6.82
2022-10-18T03:30:49.214Z,6.68
2022-10-18T03:33:17.344Z,8.10
2022-10-18T03:35:44.656Z,7.68
2022-10-18T03:38:12.146Z,7.20
2022-10-18T03:40:39.475Z,5.82
2022-10-18T03:43:06.919Z,9.50
2022-10-18T03:45:34.252Z,7.47
2022-10-18T03:48:01.710Z,10.27
2022-10-18T03:50:29.281Z,5.57
2022-10-18T03:52:56.715Z,6.55
2022-10-18T03:55:24.241Z,7.55
2022-10-18T03:57:51.680Z,6.10
2022-10-18T04:00:19.113Z,8.25
2022-10-18T04:02:46.783Z,7.95
2022-10-18T04:05:14.951Z,10.88
2022-10-18T04:07:42.348Z,10.13
2022-10-18T04:10:09.932Z,6.18
2022-10-18T04:12:37.467Z,8.88
2022-10-18T04:15:05.187Z,7.35
2022-10-18T04:17:32.802Z,8.23
2022-10-18T04:20:00.600Z,6.93
2022-10-18T04:22:27.943Z,8.13
2022-10-18T04:24:57.052Z,9.18
2022-10-18T04:27:24.778Z,8.93
2022-10-18T04:29:52.112Z,6.95
2022-10-18T04:32:19.507Z,9.18
2022-10-18T04:34:46.957Z,6.22
2022-10-18T04:37:14.446Z,10.18
2022-10-18T04:39:49.840Z,7.50
2022-10-18T04:42:20.258Z,11.00
2022-10-18T04:44:47.706Z,9.82
2022-10-18T04:47:15.544Z,20.08
2022-10-18T04:49:43.027Z,7.63
2022-10-18T04:52:10.608Z,14.18
2022-10-18T04:54:38.071Z,6.85
2022-10-18T04:57:05.533Z,9.07
2022-10-18T04:59:32.930Z,8.43
2022-10-18T05:02:00.527Z,9.75
2022-10-18T05:04:27.931Z,9.32
2022-10-18T05:06:55.383Z,7.38
2022-10-18T05:09:24.943Z,9.00
2022-10-18T05:11:52.390Z,13.10
2022-10-18T05:14:19.720Z,8.32
2022-10-18T05:16:47.173Z,6.00
2022-10-18T05:19:14.519Z,11.38
2022-10-18T05:21:41.911Z,12.82
2022-10-18T05:24:12.039Z,9.27
2022-10-18T05:26:39.500Z,9.85
2022-10-18T05:29:07.201Z,7.15
2022-10-18T05:31:34.811Z,10.18
2022-10-18T05:34:02.538Z,6.55
2022-10-18T05:36:30.075Z,6.28
2022-10-18T05:39:00.946Z,8.35
2022-10-18T05:41:32.119Z,7.28
2022-10-18T05:43:59.628Z,12.05
2022-10-18T05:46:26.924Z,10.23
2022-10-18T05:48:54.303Z,9.07
2022-10-18T05:51:21.659Z,9.88
2022-10-18T05:53:49.105Z,8.15
2022-10-18T05:56:16.478Z,9.02
2022-10-18T05:58:43.878Z,8.95
2022-10-18T06:01:11.316Z,7.38
2022-10-18T06:03:38.776Z,6.38
2022-10-18T06:06:09.488Z,7.72
2022-10-18T06:08:38.006Z,7.68
2022-10-18T06:11:11.179Z,7.05
2022-10-18T06:13:50.115Z,9.15
2022-10-18T06:16:20.521Z,11.55
2022-10-18T06:18:55.365Z,11.90
2022-10-18T06:21:24.463Z,6.72
2022-10-18T06:23:59.330Z,7.38
2022-10-18T06:26:28.148Z,11.43
2022-10-18T06:28:55.633Z,7.55
2022-10-18T06:31:23.182Z,6.72
2022-10-18T06:33:50.872Z,12.07
2022-10-18T06:36:25.297Z,10.40
2022-10-18T06:38:53.110Z,7.13
2022-10-18T06:41:20.835Z,10.65
2022-10-18T06:43:53.517Z,8.50
2022-10-18T06:46:21.017Z,10.45
2022-10-18T06:48:48.435Z,14.10
2022-10-18T06:51:15.775Z,14.30
2022-10-18T06:53:53.455Z,18.83
2022-10-18T06:56:30.841Z,7.20
2022-10-18T07:01:27.098Z,12.10
2022-10-18T07:03:55.497Z,12.98
2022-10-18T07:06:24.118Z,9.57
2022-10-18T07:08:55.216Z,6.65
2022-10-18T07:11:25.394Z,6.18
2022-10-18T07:13:54.807Z,4.50
2022-10-18T07:16:22.238Z,11.93
2022-10-18T07:18:51.645Z,5.40
2022-10-18T07:21:22.261Z,6.15
2022-10-18T07:23:51.082Z,9.52
2022-10-18T07:26:22.955Z,7.97
2022-10-18T07:28:58.217Z,6.47
2022-10-18T07:31:26.361Z,9.80
2022-10-18T07:33:54.551Z,5.22
2022-10-18T07:36:22.498Z,9.75
2022-10-18T07:38:52.186Z,6.78
2022-10-18T07:41:19.918Z,7.07
2022-10-18T07:43:51.046Z,7.45
2022-10-18T07:46:20.295Z,5.07
2022-10-18T07:48:47.963Z,4.15
2022-10-18T07:51:15.832Z,8.05
2022-10-18T07:53:43.315Z,4.75
2022-10-18T07:56:16.645Z,6.95
2022-10-18T08:01:12.762Z,8.55
2022-10-18T08:03:42.198Z,7.35
2022-10-18T08:06:12.077Z,9.55
2022-10-18T08:08:40.844Z,6.05
2022-10-18T08:11:11.775Z,8.10
2022-10-18T08:13:39.270Z,7.30
2022-10-18T08:16:09.089Z,7.20
2022-10-18T08:18:37.495Z,8.55
2022-10-18T08:21:07.499Z,8.35
2022-10-18T08:23:35.685Z,5.93
2022-10-18T08:26:05.341Z,8.82
2022-10-18T08:28:33.268Z,5.75
2022-10-18T08:31:04.991Z,6.97
2022-10-18T08:33:33.156Z,4.90
2022-10-18T08:36:02.163Z,6.80
2022-10-18T08:38:31.665Z,8.25
2022-10-18T08:41:02.722Z,5.50
2022-10-18T08:43:56.595Z,7.38
2022-10-18T08:46:24.134Z,6.63
2022-10-18T08:48:55.356Z,6.00
2022-10-18T08:51:45.162Z,7.85
2022-10-18T08:54:14.961Z,6.80
2022-10-18T08:56:46.086Z,4.57
2022-10-18T08:59:14.508Z,5.65
2022-10-18T09:02:01.361Z,4.82
2022-10-18T09:04:47.579Z,15.02
2022-10-18T09:07:33.583Z,11.18
2022-10-18T09:10:21.059Z,5.72
2022-10-18T09:13:00.367Z,5.78
2022-10-18T09:15:45.706Z,5.20
2022-10-18T09:18:45.247Z,9.13
2022-10-18T09:21:15.376Z,5.00
2022-10-18T09:24:13.505Z,5.78
2022-10-18T09:26:58.126Z,5.90
2022-10-18T09:29:53.314Z,5.57
2022-10-18T09:32:56.070Z,5.90
2022-10-18T09:35:29.304Z,5.82
2022-10-18T09:38:04.900Z,6.47
2022-10-18T09:40:39.989Z,4.65
2022-10-18T09:43:15.134Z,7.47
2022-10-18T09:45:46.111Z,5.10
2022-10-18T09:48:29.341Z,7.15
2022-10-18T09:50:58.791Z,5.32
2022-10-18T09:53:37.240Z,5.30
2022-10-18T09:56:14.923Z,5.38
2022-10-18T09:58:48.033Z,5.28
2022-10-18T10:01:21.697Z,7.80
2022-10-18T10:03:49.221Z,7.93
2022-10-18T10:06:23.472Z,5.68
2022-10-18T10:08:58.860Z,4.43
2022-10-18T10:11:33.326Z,7.53
2022-10-18T10:14:13.233Z,7.30
2022-10-18T10:17:03.603Z,6.63
2022-10-18T10:19:55.065Z,6.35
2022-10-18T10:22:32.037Z,4.97
2022-10-18T10:25:00.043Z,5.55
2022-10-18T10:27:41.679Z,5.95
2022-10-18T10:30:27.451Z,4.78
2022-10-18T10:32:57.081Z,6.43
2022-10-18T10:35:59.886Z,4.82
2022-10-18T10:38:30.280Z,4.72
2022-10-18T10:40:58.677Z,4.50
2022-10-18T10:43:38.218Z,4.00
2022-10-18T10:46:11.850Z,6.85
2022-10-18T10:49:15.356Z,5.50
2022-10-18T10:51:45.169Z,8.10
2022-10-18T10:54:17.452Z,9.25
2022-10-18T10:57:20.164Z,6.35
2022-10-18T10:59:54.506Z,6.30
2022-10-18T11:02:36.378Z,6.28
2022-10-18T11:05:26.096Z,6.70
2022-10-18T11:07:57.973Z,5.00
2022-10-18T11:10:29.733Z,4.07
2022-10-18T11:13:35.846Z,6.50
2022-10-18T11:16:43.428Z,6.22
2022-10-18T11:19:37.954Z,4.38
2022-10-18T11:22:10.759Z,4.43
2022-10-18T11:24:38.370Z,5.75
2022-10-18T11:27:19.558Z,4.88
2022-10-18T11:30:03.626Z,5.72
2022-10-18T11:32:58.782Z,3.72
2022-10-18T11:35:42.163Z,3.58
2022-10-18T11:41:14.130Z,2.92
2022-10-18T11:44:12.253Z,5.60
2022-10-18T11:47:03.638Z,4.25
2022-10-18T11:50:04.407Z,11.85
2022-10-18T11:52:47.640Z,5.75
2022-10-18T11:55:56.663Z,5.10
2022-10-18T11:58:54.339Z,6.93
2022-10-18T12:01:28.852Z,7.13
2022-10-18T12:04:18.061Z,5.50
2022-10-18T12:06:49.429Z,9.50
2022-10-18T12:09:37.590Z,9.48
2022-10-18T12:12:26.997Z,6.82
2022-10-18T12:14:59.754Z,6.13
2022-10-18T12:17:49.857Z,7.88
2022-10-18T12:20:40.636Z,5.57
2022-10-18T12:23:20.807Z,4.75
2022-10-18T12:25:55.749Z,4.38
2022-10-18T12:28:41.513Z,4.63
2022-10-18T12:31:27.044Z,4.18
2022-10-18T12:33:58.848Z,5.43
2022-10-18T12:36:47.610Z,4.82
2022-10-18T12:39:58.438Z,6.28
2022-10-18T12:42:33.941Z,6.78
2022-10-18T12:45:33.503Z,2.92
2022-10-18T12:48:08.932Z,6.13
2022-10-18T12:50:42.811Z,4.20
2022-10-18T12:53:10.264Z,5.30
2022-10-18T12:58:15.880Z,3.38
2022-10-18T13:00:43.180Z,3.08
2022-10-18T13:03:13.370Z,4.97
2022-10-18T13:05:55.568Z,3.78
2022-10-18T13:08:35.484Z,5.72
2022-10-18T13:11:09.227Z,4.18
2022-10-18T13:13:55.536Z,4.72
2022-10-18T13:16:28.640Z,4.93
2022-10-18T13:19:10.064Z,6.00
2022-10-18T13:22:14.987Z,3.97
2022-10-18T13:25:01.933Z,5.95
2022-10-18T13:27:51.642Z,3.25
2022-10-18T13:30:19.026Z,4.70
2022-10-18T13:33:14.903Z,5.35
2022-10-18T13:35:50.609Z,4.43
2022-10-18T13:38:38.501Z,8.63
2022-10-18T13:41:08.556Z,20.45
2022-10-18T13:43:58.388Z,7.18
2022-10-18T13:46:35.157Z,4.95
2022-10-18T13:49:17.693Z,6.05
2022-10-18T13:52:33.016Z,8.20
2022-10-18T13:55:06.539Z,7.10
2022-10-18T13:58:06.567Z,5.05
2022-10-18T14:00:56.240Z,5.82
2022-10-18T14:03:51.951Z,5.85
2022-10-18T14:06:25.274Z,4.23
2022-10-18T14:09:26.117Z,2.85
2022-10-18T14:12:14.903Z,3.55
2022-10-18T14:14:42.318Z,3.92
2022-10-18T14:20:21.082Z,3.03
2022-10-18T14:22:57.112Z,3.38
2022-10-18T14:25:30.957Z,3.10
2022-10-18T14:30:36.508Z,3.58
2022-10-18T14:33:04.458Z,3.40
2022-10-18T14:35:35.481Z,5.25
2022-10-18T14:38:03.098Z,6.40
2022-10-18T14:40:32.589Z,5.82
2022-10-18T14:43:15.074Z,5.80
2022-10-18T14:45:43.410Z,3.90
2022-10-18T14:48:16.857Z,5.88
2022-10-18T14:50:47.665Z,5.22
2022-10-18T14:53:22.215Z,3.28
2022-10-18T14:56:01.056Z,4.90
2022-10-18T14:58:28.940Z,4.15
2022-10-18T15:00:56.780Z,4.88
2022-10-18T15:03:24.896Z,3.45
2022-10-18T15:06:01.429Z,5.35
2022-10-18T15:08:42.654Z,4.00
2022-10-18T15:11:14.522Z,5.32
2022-10-18T15:13:50.852Z,5.13
2022-10-18T15:16:21.060Z,3.85
2022-10-18T15:19:24.779Z,7.43
2022-10-18T15:25:16.983Z,6.63
2022-10-18T15:27:53.714Z,7.68
2022-10-18T15:30:27.692Z,6.75
2022-10-18T15:33:01.371Z,4.72
2022-10-18T15:35:34.919Z,6.32
2022-10-18T15:38:15.231Z,5.82
2022-10-18T15:40:43.416Z,5.13
2022-10-18T15:43:26.184Z,7.57
2022-10-18T15:45:58.837Z,2.83
2022-10-18T15:48:38.924Z,4.32
2022-10-18T15:51:26.703Z,4.15
2022-10-18T15:53:55.385Z,6.18
2022-10-18T15:56:30.860Z,4.40
2022-10-18T15:59:01.124Z,5.43
2022-10-18T16:01:37.400Z,4.43
2022-10-18T16:04:21.129Z,5.15
2022-10-18T16:06:48.756Z,5.70
2022-10-18T16:09:18.364Z,4.78
2022-10-18T16:11:46.308Z,7.40
2022-10-18T16:14:13.979Z,5.22
2022-10-18T16:16:41.477Z,4.32
2022-10-18T16:19:10.351Z,4.88
2022-10-18T16:21:39.411Z,4.82
2022-10-18T16:24:07.166Z,5.20
2022-10-18T16:26:35.508Z,4.70
2022-10-18T16:29:03.661Z,4.63
2022-10-18T16:31:33.940Z,5.47
2022-10-18T16:34:02.468Z,5.30
2022-10-18T16:36:32.559Z,5.55
2022-10-18T16:39:02.714Z,6.40
2022-10-18T16:41:30.147Z,5.85
2022-10-18T16:43:57.587Z,4.85
2022-10-18T16:46:31.189Z,9.20
2022-10-18T16:48:59.466Z,8.35
2022-10-18T16:51:27.163Z,5.90
2022-10-18T16:53:55.006Z,5.22
2022-10-18T16:56:31.539Z,5.05
2022-10-18T16:58:59.856Z,6.75
2022-10-18T17:01:27.398Z,4.10
2022-10-18T17:03:55.580Z,4.28
2022-10-18T17:06:25.835Z,5.78
2022-10-18T17:08:54.520Z,4.53
2022-10-18T17:11:24.973Z,3.15
2022-10-18T17:13:52.982Z,4.45
2022-10-18T17:16:33.118Z,5.63
2022-10-18T17:19:05.303Z,4.53
2022-10-18T17:21:33.868Z,4.03
2022-10-18T17:24:04.485Z,4.85
2022-10-18T17:26:32.878Z,6.03
2022-10-18T17:29:04.555Z,3.63
2022-10-18T17:31:33.209Z,4.47
2022-10-18T17:34:02.160Z,5.10
2022-10-18T17:36:31.937Z,4.07
2022-10-18T17:39:00.109Z,3.60
2022-10-18T17:41:27.942Z,3.83
2022-10-18T17:43:55.617Z,4.57
2022-10-18T17:46:23.925Z,3.78
2022-10-18T17:48:51.536Z,5.10
2022-10-18T17:51:18.965Z,4.07
2022-10-18T17:53:46.668Z,3.35
2022-10-18T17:56:14.910Z,4.05
2022-10-18T17:58:43.838Z,4.75
2022-10-18T18:01:18.791Z,2.90
2022-10-18T18:03:48.073Z,3.50
2022-10-18T18:06:21.150Z,3.75
2022-10-18T18:08:49.604Z,3.70
2022-10-18T18:11:18.100Z,3.58
2022-10-18T18:13:45.529Z,4.57
2022-10-18T18:16:17.326Z,7.53
2022-10-18T18:18:46.975Z,3.70
2022-10-18T18:21:14.570Z,5.25
2022-10-18T18:23:42.201Z,4.30
2022-10-18T18:26:09.778Z,3.25
2022-10-18T18:28:37.565Z,3.42
2022-10-18T18:31:09.656Z,3.30
2022-10-18T18:33:37.737Z,4.43
2022-10-18T18:36:06.854Z,4.05
2022-10-18T18:38:36.494Z,5.78
2022-10-18T18:41:12.313Z,3.05
2022-10-18T18:43:44.171Z,3.50
2022-10-18T18:46:13.215Z,4.88
2022-10-18T18:48:41.294Z,3.20
2022-10-18T18:51:13.772Z,3.50
2022-10-18T18:53:41.870Z,3.60
2022-10-18T18:56:13.069Z,3.75
2022-10-18T18:58:44.456Z,3.95
2022-10-18T19:01:19.155Z,4.68
2022-10-18T19:03:50.245Z,3.92
2022-10-18T19:06:23.456Z,4.35
2022-10-18T19:08:54.281Z,3.70
2022-10-18T19:11:23.152Z,4.78
2022-10-18T19:13:50.611Z,3.03
2022-10-18T19:16:38.745Z,4.05
2022-10-18T19:19:18.541Z,6.63
2022-10-18T19:21:48.182Z,5.05
2022-10-18T19:24:16.235Z,7.60
2022-10-18T19:26:56.297Z,5.63
2022-10-18T19:29:24.969Z,5.22
2022-10-18T19:31:55.087Z,7.28
2022-10-18T19:34:24.992Z,5.85
2022-10-18T19:36:52.869Z,3.70
2022-10-18T19:39:28.269Z,3.58
2022-10-18T19:41:59.595Z,4.07
2022-10-18T19:44:30.836Z,5.57
2022-10-18T19:46:59.012Z,4.97
2022-10-18T19:49:28.849Z,5.28
2022-10-18T19:51:56.814Z,3.70
2022-10-18T19:54:24.783Z,5.95
2022-10-18T19:56:52.234Z,3.85
2022-10-18T19:59:20.073Z,3.75
2022-10-18T20:01:47.534Z,5.22
2022-10-18T20:04:16.530Z,4.13
2022-10-18T20:06:44.364Z,4.05
2022-10-18T20:09:16.217Z,3.60
2022-10-18T20:11:46.906Z,3.63
2022-10-18T20:14:14.330Z,4.07
2022-10-18T20:16:43.090Z,4.93
2022-10-18T20:19:10.818Z,4.30
2022-10-18T20:21:39.674Z,4.47
2022-10-18T20:24:09.549Z,3.47
2022-10-18T20:26:36.913Z,4.32
2022-10-18T20:29:04.775Z,3.20
2022-10-18T20:31:35.816Z,3.65
2022-10-18T20:34:06.731Z,4.68
2022-10-18T20:36:35.013Z,3.88
2022-10-18T20:39:04.090Z,3.63
2022-10-18T20:41:34.483Z,4.00
2022-10-18T20:44:04.554Z,3.38
2022-10-18T20:46:34.735Z,3.08
2022-10-18T20:49:03.030Z,2.42
2022-10-18T20:51:30.667Z,4.00
2022-10-18T20:53:58.467Z,3.63
2022-10-18T20:56:29.062Z,3.70
2022-10-18T20:58:58.325Z,3.85
2022-10-18T21:01:28.468Z,3.50
2022-10-18T21:03:57.759Z,3.05
2022-10-18T21:06:30.212Z,3.42
2022-10-18T21:09:00.528Z,3.20
2022-10-18T21:11:30.241Z,3.47
2022-10-18T21:14:00.400Z,4.03
2022-10-18T21:16:27.912Z,3.22
2022-10-18T21:18:55.801Z,3.42
2022-10-18T21:21:24.949Z,3.20
2022-10-18T21:23:52.912Z,4.75
2022-10-18T21:26:22.933Z,3.20
2022-10-18T21:28:52.082Z,4.47
2022-10-18T21:31:22.064Z,4.22
2022-10-18T21:33:54.436Z,3.63
2022-10-18T21:36:22.250Z,3.22
2022-10-18T21:38:50.491Z,4.00
2022-10-18T21:41:20.358Z,3.50
2022-10-18T21:43:50.533Z,3.03
2022-10-18T21:46:19.678Z,3.65
2022-10-18T21:48:49.469Z,4.05
2022-10-18T21:51:19.648Z,4.68
2022-10-18T21:53:49.145Z,4.38
2022-10-18T21:56:18.907Z,3.30
2022-10-18T21:58:46.873Z,3.45
2022-10-18T22:01:19.206Z,3.92
2022-10-18T22:03:49.252Z,4.25
2022-10-18T22:06:17.854Z,3.25
2022-10-18T22:08:57.003Z,4.03
2022-10-18T22:11:30.721Z,3.83
2022-10-18T22:13:58.573Z,3.95
2022-10-18T22:16:26.786Z,4.25
2022-10-18T22:18:58.733Z,3.25
2022-10-18T22:21:26.746Z,4.80
2022-10-18T22:23:57.228Z,3.55
2022-10-18T22:26:36.727Z,2.95
2022-10-18T22:29:07.302Z,2.95
2022-10-18T22:31:38.696Z,3.05
2022-10-18T22:34:09.251Z,2.83
2022-10-18T22:36:37.443Z,3.53
2022-10-18T22:39:06.291Z,3.03
2022-10-18T22:41:34.909Z,3.60
2022-10-18T22:44:03.834Z,3.03
2022-10-18T22:46:33.144Z,2.80
2022-10-18T22:49:00.516Z,2.10
2022-10-18T22:51:28.124Z,2.72
2022-10-18T22:53:55.884Z,2.53
2022-10-18T22:56:24.132Z,4.53
2022-10-18T22:58:51.767Z,3.17
2022-10-18T23:01:21.538Z,2.70
2022-10-18T23:03:56.631Z,2.58
2022-10-18T23:06:26.979Z,2.70
2022-10-18T23:08:56.669Z,2.70
2022-10-18T23:11:25.193Z,2.13
2022-10-18T23:13:52.795Z,1.95
2022-10-18T23:16:21.096Z,1.23
2022-10-18T23:18:56.077Z,2.42
2022-10-18T23:21:25.580Z,2.28
2022-10-18T23:23:54.247Z,2.25
2022-10-18T23:26:27.615Z,2.13
2022-10-18T23:28:55.575Z,2.30
2022-10-18T23:31:32.945Z,1.92
2022-10-18T23:34:04.507Z,1.85
2022-10-18T23:36:33.528Z,2.17
2022-10-18T23:39:02.021Z,2.03
2022-10-18T23:41:29.870Z,1.52
2022-10-18T23:43:57.369Z,2.70
2022-10-18T23:46:25.158Z,2.60
2022-10-18T23:48:52.544Z,1.70
2022-10-18T23:51:20.021Z,1.98
2022-10-18T23:53:47.471Z,1.98
2022-10-18T23:56:16.730Z,1.75
2022-10-18T23:58:45.385Z,2.00
